메인 페이지
METAR-TAF:

METAR-TAF

공항 :

마이애미 국제공항

마이애미, 플로리다, 미국

위도: 25-47-26N, 경도: 080-18-59W, 고도: 3m

현재 날씨관측

예보는 23분 전, 07:53시(UTC)에 발표되었습니다.
무풍
온도 27°C
습도 84%
기압 1015 hPa
시정: 16.1km
고도 200ft 상공 구름 조금
고도 3200ft 상공 구름 조금
고도 25000ft 상공 구름 많음

METAR: KMIA 200753Z 00000KT 10SM FEW002 FEW032 BKN250 27/24 A2998 RMK AO2 SLP152 FU FEW002 T02720244 $

시각: 04:16 (08:16 UTC)

예보

예보는 2 시간 36분 전, 05:40시(UTC)에 발표되었습니다.
예보 대상 시간: 20일 06시부터 21일 12시까지 (UTC)
서북서5kt
시정: 10km
고도 300ft 상공 구름 조금
고도 2500ft 상공 구름 많음
고도 25000ft 상공 구름 많음
20일 1600시부터 (UTC)
7kt
시정: 10km
고도 3000ft 상공 구름 보통
20일 2000시부터 (UTC)
남남동10kt
시정: 10km
고도 3500ft 상공 구름 보통, 적란운.
시계 내 뇌우
21일 0000시부터 (UTC)
남서3kt
시정: 10km
고도 20000ft 상공 구름 많음

TAF: KMIA 200540Z 2006/2112 29005KT P6SM FEW003 BKN025 BKN250 FM201600 17007KT P6SM SCT030 FM202000 15010KT P6SM VCTS SCT035CB FM210000 22003KT P6SM BKN200

4,000개 이상의 공항 관측 자료 및 예보 (METAR 및 TAF 보고).

지도상에서 검색 가능한 기상관측소가 노란 점과 빨간 점으로 표시되어 있습니다.

기상관측소 명을 보려면 표시 위로 마우스를 이동하세요.

날씨 관측과 예보를 보려면 클릭하세요.

지도 변경 : 확대하려면 엑스 표시가 있는 녹색 버튼, 축소하려면 빼기 표시가 있는 녹색 버튼, 다음 페이지의 지도를 보려면 녹색 화살표를 클릭하세요.


METAR-TAF: